Time;durP1;ratioP1;P1;durP2;ratioP2;P2;SDS_P1;SDS_P2;PMS_P1;PMS_P2;Temp;Humidity;BMP_temperature;BMP_pressure;BME280_temperature;BME280_humidity;BME280_pressure;Samples;Min_cycle;Max_cycle;Signal;HPM_P1;HPM_P2
2023/10/18 00:00:45;;;;;;;7.47;5.90;;;;;;;2.29;100.00;92608.19;2106038;28;20027;-83
2023/10/18 00:01:48;;;;;;;9.93;5.93;;;;;;;2.33;100.00;92607.06;2089342;28;20099;-84
2023/10/18 00:02:53;;;;;;;10.27;6.00;;;;;;;2.26;100.00;92605.16;2095136;28;20493;-82
2023/10/18 00:03:56;;;;;;;8.43;5.70;;;;;;;2.20;100.00;92605.91;2107219;28;20028;-83
2023/10/18 00:04:57;;;;;;;8.40;5.82;;;;;;;2.20;100.00;92608.53;2101173;28;20025;-83
2023/10/18 00:06:00;;;;;;;5.88;4.93;;;;;;;2.14;100.00;92608.16;2089881;28;20116;-83
2023/10/18 00:07:02;;;;;;;7.07;5.55;;;;;;;2.19;100.00;92609.66;2106222;28;20442;-83
2023/10/18 00:08:03;;;;;;;6.65;5.15;;;;;;;2.26;100.00;92613.06;2101495;28;20036;-83
2023/10/18 00:10:33;;;;;;;10.43;5.35;;;;;;;2.28;100.00;92604.75;2101509;28;20039;-83
2023/10/18 00:11:33;;;;;;;9.52;5.75;;;;;;;2.27;100.00;92598.00;2102119;28;20039;-83
2023/10/18 00:12:37;;;;;;;7.80;5.60;;;;;;;2.24;100.00;92594.25;2097757;28;20119;-82
2023/10/18 00:13:38;;;;;;;5.88;5.28;;;;;;;2.24;100.00;92599.50;2104022;28;20023;-84
2023/10/18 00:14:40;;;;;;;7.47;5.85;;;;;;;2.13;100.00;92596.09;2106334;28;20012;-84
2023/10/18 00:15:41;;;;;;;7.35;4.97;;;;;;;2.13;100.00;92595.34;2114649;28;20087;-83
2023/10/18 00:16:42;;;;;;;6.95;5.05;;;;;;;2.19;100.00;92591.94;2092164;28;20033;-84
2023/10/18 00:17:44;;;;;;;10.30;5.72;;;;;;;2.30;100.00;92591.97;2094598;28;20024;-83
2023/10/18 00:18:45;;;;;;;7.47;5.40;;;;;;;2.28;100.00;92591.59;2097931;28;20063;-83
2023/10/18 00:19:46;;;;;;;5.22;4.68;;;;;;;2.40;100.00;92593.09;2092607;28;20020;-83
2023/10/18 00:20:47;;;;;;;7.10;5.22;;;;;;;2.24;100.00;92586.31;2097844;28;20100;-83
2023/10/18 00:21:48;;;;;;;8.52;5.45;;;;;;;2.26;100.00;92591.97;2099552;28;20446;-83
2023/10/18 00:22:49;;;;;;;8.02;5.55;;;;;;;2.17;100.00;92588.94;2102285;28;20107;-83
2023/10/18 00:23:50;;;;;;;7.35;5.22;;;;;;;2.27;100.00;92582.16;2106073;28;20031;-83
2023/10/18 00:24:51;;;;;;;8.85;6.13;;;;;;;2.30;100.00;92588.59;2102034;28;20020;-83
2023/10/18 00:25:52;;;;;;;9.90;5.38;;;;;;;2.27;100.00;92590.09;2120596;27;20068;-84
2023/10/18 00:26:54;;;;;;;11.70;5.32;;;;;;;2.27;100.00;92582.16;2098883;28;20037;-83
2023/10/18 00:27:55;;;;;;;7.03;5.18;;;;;;;2.32;100.00;92581.78;2082345;28;20044;-84
2023/10/18 00:28:56;;;;;;;8.00;5.80;;;;;;;2.36;100.00;92581.81;2089533;28;20417;-83
2023/10/18 00:29:58;;;;;;;9.23;5.82;;;;;;;2.29;100.00;92577.28;2094076;28;20556;-83
2023/10/18 00:31:20;;;;;;;9.70;5.05;;;;;;;2.20;100.00;92571.63;2106432;28;20403;-84
2023/10/18 00:32:21;;;;;;;8.50;5.50;;;;;;;2.23;100.00;92574.25;2109016;28;20424;-83
2023/10/18 00:33:22;;;;;;;8.82;5.43;;;;;;;2.24;100.00;92572.41;2097691;28;20025;-83
2023/10/18 00:34:23;;;;;;;7.88;5.18;;;;;;;2.26;100.00;92570.88;2097595;28;20111;-84
2023/10/18 00:35:31;;;;;;;10.90;5.50;;;;;;;2.31;100.00;92559.19;2097667;28;20020;-84
2023/10/18 00:36:32;;;;;;;7.95;5.35;;;;;;;2.32;100.00;92562.59;2092710;28;20413;-84
2023/10/18 00:37:33;;;;;;;7.05;5.43;;;;;;;2.24;100.00;92564.47;2089473;28;20021;-84
2023/10/18 00:38:34;;;;;;;6.93;4.97;;;;;;;2.21;100.00;92568.63;2102470;28;20024;-83
2023/10/18 00:39:35;;;;;;;12.30;5.43;;;;;;;2.21;100.00;92565.97;2099210;28;20016;-84
2023/10/18 00:40:39;;;;;;;7.07;5.18;;;;;;;2.17;100.00;92562.59;2097645;28;20477;-83
2023/10/18 00:41:44;;;;;;;9.25;4.75;;;;;;;2.15;100.00;92561.44;2106065;28;20019;-83
2023/10/18 00:42:45;;;;;;;8.25;5.57;;;;;;;2.15;100.00;92559.59;2106347;28;20618;-83
2023/10/18 00:43:46;;;;;;;8.82;5.40;;;;;;;2.19;100.00;92562.94;2097791;28;20039;-83
2023/10/18 00:44:50;;;;;;;7.38;5.30;;;;;;;2.21;100.00;92554.69;2094426;28;20048;-82
2023/10/18 00:45:52;;;;;;;7.35;5.28;;;;;;;2.21;100.00;92563.34;2098425;28;20059;-84
2023/10/18 00:46:54;;;;;;;8.15;5.47;;;;;;;2.24;100.00;92559.97;2099272;28;20398;-83
2023/10/18 00:47:57;;;;;;;7.10;5.47;;;;;;;2.18;100.00;92564.09;2099016;28;20462;-83
2023/10/18 00:48:58;;;;;;;9.30;5.57;;;;;;;2.15;100.00;92558.81;2097923;28;20591;-83
2023/10/18 00:49:59;;;;;;;7.63;4.85;;;;;;;2.21;100.00;92563.34;2089195;28;20056;-83
2023/10/18 00:51:00;;;;;;;8.85;5.38;;;;;;;2.25;100.00;92561.47;2097848;28;20028;-83
2023/10/18 00:52:01;;;;;;;7.85;5.25;;;;;;;2.32;100.00;92562.59;2105710;28;20027;-83
2023/10/18 00:53:03;;;;;;;8.40;5.18;;;;;;;2.32;100.00;92558.06;2103088;28;20028;-82
2023/10/18 00:54:11;;;;;;;11.15;6.00;;;;;;;2.32;100.00;92547.50;2097818;28;20052;-83
2023/10/18 00:55:12;;;;;;;11.15;5.68;;;;;;;2.34;100.00;92553.19;2089947;28;20107;-83
2023/10/18 00:56:15;;;;;;;9.15;5.72;;;;;;;2.38;100.00;92548.66;2090131;28;20370;-83
2023/10/18 00:57:24;;;;;;;10.18;5.68;;;;;;;2.36;100.00;92544.88;2101246;28;20123;-84
2023/10/18 00:58:32;;;;;;;7.25;5.22;;;;;;;2.37;100.00;92549.03;2100836;28;20016;-83
2023/10/18 00:59:33;;;;;;;9.20;6.03;;;;;;;2.26;100.00;92539.22;2089696;28;20052;-83
2023/10/18 01:00:37;;;;;;;8.35;5.45;;;;;;;2.29;100.00;92548.28;2097558;28;20032;-83
2023/10/18 01:01:42;;;;;;;8.98;5.28;;;;;;;2.31;100.00;92543.38;2101876;28;20024;-83
2023/10/18 01:02:48;;;;;;;6.40;4.82;;;;;;;2.33;100.00;92551.69;2102182;28;20028;-83
2023/10/18 01:03:49;;;;;;;8.63;5.20;;;;;;;2.41;100.00;92552.41;2104800;28;20051;-84
2023/10/18 01:04:52;;;;;;;8.38;5.65;;;;;;;2.42;100.00;92549.41;2087320;28;20052;-83
2023/10/18 01:06:28;;;;;;;7.60;4.82;;;;;;;2.46;100.00;92547.53;2089486;28;20035;-84
2023/10/18 01:07:29;;;;;;;9.23;4.85;;;;;;;2.45;100.00;92553.16;2098870;28;20035;-83
2023/10/18 01:08:32;;;;;;;7.53;5.30;;;;;;;2.45;100.00;92539.97;2096414;28;20024;-83
2023/10/18 01:09:33;;;;;;;7.38;4.68;;;;;;;2.46;100.00;92536.22;2097508;28;20130;-83
2023/10/18 01:10:37;;;;;;;11.40;5.93;;;;;;;2.36;100.00;92540.34;2097522;28;20044;-82
2023/10/18 01:11:38;;;;;;;9.13;5.25;;;;;;;2.41;100.00;92542.59;2097576;28;20031;-83
2023/10/18 01:12:39;;;;;;;8.65;5.75;;;;;;;2.35;100.00;92538.84;2089256;28;20025;-83
2023/10/18 01:13:42;;;;;;;6.30;5.25;;;;;;;2.34;100.00;92545.25;2097371;28;20020;-84
2023/10/18 01:14:43;;;;;;;9.52;5.15;;;;;;;2.42;100.00;92532.84;2114071;28;20023;-84
2023/10/18 01:15:44;;;;;;;7.93;5.10;;;;;;;2.34;100.00;92532.09;2106036;28;20053;-83
2023/10/18 01:16:46;;;;;;;8.07;5.53;;;;;;;2.38;100.00;92542.63;2097059;28;20043;-83
2023/10/18 01:17:47;;;;;;;9.07;5.68;;;;;;;2.38;100.00;92532.09;2105845;28;20122;-83
2023/10/18 01:18:50;;;;;;;10.23;5.45;;;;;;;2.38;100.00;92529.44;2111344;28;20032;-83
2023/10/18 01:19:53;;;;;;;8.55;5.13;;;;;;;2.33;100.00;92537.72;2097536;28;20024;-83
2023/10/18 01:20:56;;;;;;;8.85;5.43;;;;;;;2.27;100.00;92537.34;2105682;28;20051;-82
2023/10/18 01:21:57;;;;;;;8.93;5.35;;;;;;;2.50;100.00;92535.09;2097564;28;20025;-83
2023/10/18 01:23:07;;;;;;;8.07;5.03;;;;;;;2.43;100.00;92540.38;2100567;28;20146;-83
2023/10/18 01:24:14;;;;;;;5.90;4.65;;;;;;;2.42;100.00;92538.13;2106215;28;20153;-83
2023/10/18 01:25:15;;;;;;;7.90;5.18;;;;;;;2.44;100.00;92528.66;2113174;28;20107;-83
2023/10/18 01:26:23;;;;;;;7.60;5.03;;;;;;;2.46;100.00;92528.31;2105889;28;20107;-83
2023/10/18 01:27:24;;;;;;;8.80;4.97;;;;;;;2.46;100.00;92526.44;2097138;28;20021;-83
2023/10/18 01:28:26;;;;;;;8.05;4.68;;;;;;;2.50;100.00;92523.75;2083452;28;20083;-82
2023/10/18 01:29:28;;;;;;;8.98;4.40;;;;;;;2.50;100.00;92516.63;2090448;28;20116;-82
2023/10/18 01:30:29;;;;;;;7.65;5.10;;;;;;;2.40;100.00;92520.00;2093968;28;20607;-82
2023/10/18 01:31:31;;;;;;;6.90;4.93;;;;;;;2.34;100.00;92520.78;2089446;28;20028;-83
2023/10/18 01:32:32;;;;;;;5.32;4.35;;;;;;;2.43;100.00;92510.59;2105634;28;20028;-83
2023/10/18 01:33:34;;;;;;;7.03;4.43;;;;;;;2.43;100.00;92515.88;2109360;28;20449;-84
2023/10/18 01:34:37;;;;;;;5.72;4.55;;;;;;;2.42;100.00;92514.38;2089640;28;20477;-82
2023/10/18 01:35:46;;;;;;;7.57;4.93;;;;;;;2.41;100.00;92510.97;2096107;28;20029;-83
2023/10/18 01:36:49;;;;;;;;;;;;;;;2.42;100.00;92514.38;2105924;28;20032;-83
2023/10/18 01:37:53;;;;;;;6.15;4.57;;;;;;;2.49;100.00;92519.63;2097255;28;19936;-82
2023/10/18 01:38:56;;;;;;;8.07;3.95;;;;;;;2.50;100.00;92519.25;2104308;28;20035;-82
2023/10/18 01:40:12;;;;;;;6.53;4.45;;;;;;;2.43;100.00;92519.25;2104210;28;20071;-83
2023/10/18 01:41:16;;;;;;;8.73;4.60;;;;;;;2.41;100.00;92515.47;2084895;28;20069;-83
2023/10/18 01:42:17;;;;;;;4.95;4.35;;;;;;;2.28;100.00;92515.13;2096739;28;20410;-83
2023/10/18 01:43:19;;;;;;;5.43;4.25;;;;;;;2.35;100.00;92509.09;2097380;28;20039;-83
2023/10/18 01:44:33;;;;;;;6.70;4.60;;;;;;;2.37;100.00;92509.47;2097486;28;20032;-83
2023/10/18 01:45:37;;;;;;;4.65;4.05;;;;;;;2.43;100.00;92506.06;2097188;28;20048;-82
2023/10/18 01:46:46;;;;;;;8.02;4.63;;;;;;;2.37;100.00;92507.59;2081736;28;20121;-82
2023/10/18 01:47:48;;;;;;;9.02;4.55;;;;;;;2.49;100.00;92512.47;2091253;28;20846;-82
2023/10/18 01:48:52;;;;;;;5.47;4.13;;;;;;;2.39;100.00;92515.13;2097335;28;20024;-83
2023/10/18 01:49:53;;;;;;;6.28;4.40;;;;;;;2.37;100.00;92510.25;2088794;28;20151;-82
2023/10/18 01:50:54;;;;;;;6.47;4.53;;;;;;;2.34;100.00;92504.97;2095848;28;20024;-82
2023/10/18 01:51:57;;;;;;;7.65;4.97;;;;;;;2.32;100.00;92510.59;2096945;28;20021;-82
2023/10/18 01:53:03;;;;;;;6.30;4.40;;;;;;;2.33;100.00;92500.78;2097482;28;20083;-83
2023/10/18 01:54:12;;;;;;;6.53;4.20;;;;;;;2.34;100.00;92503.06;2105778;28;20111;-83
2023/10/18 01:55:13;;;;;;;7.60;4.65;;;;;;;2.33;100.00;92501.56;2106658;28;20016;-83
2023/10/18 01:56:19;;;;;;;8.50;4.30;;;;;;;2.33;100.00;92493.66;2100098;28;20156;-83
2023/10/18 01:57:20;;;;;;;5.55;4.05;;;;;;;2.33;100.00;92498.16;2101357;28;20056;-83
2023/10/18 01:58:24;;;;;;;4.88;3.65;;;;;;;2.29;100.00;92492.91;2097432;28;20021;-82
2023/10/18 01:59:27;;;;;;;5.72;4.22;;;;;;;2.26;100.00;92494.41;2112443;28;20408;-82
2023/10/18 02:00:37;;;;;;;9.07;4.97;;;;;;;2.18;100.00;92490.25;2104739;28;20492;-82
2023/10/18 02:01:38;;;;;;;7.35;4.15;;;;;;;2.14;100.00;92492.16;2098063;28;20028;-83
2023/10/18 02:02:39;;;;;;;7.75;5.18;;;;;;;2.20;100.00;92487.28;2105148;28;20023;-83
2023/10/18 02:03:40;;;;;;;5.45;4.63;;;;;;;2.26;100.00;92485.75;2087135;28;20024;-83
2023/10/18 02:04:41;;;;;;;5.70;4.10;;;;;;;2.13;100.00;92487.25;2089004;28;20105;-83
2023/10/18 02:05:46;;;;;;;8.35;5.00;;;;;;;2.16;100.00;92489.16;2096679;28;20063;-83
2023/10/18 02:06:50;;;;;;;6.35;4.22;;;;;;;2.20;100.00;92485.38;2097098;28;20027;-83
2023/10/18 02:07:54;;;;;;;8.85;4.38;;;;;;;2.12;100.00;92485.75;2089398;28;20021;-82
2023/10/18 02:08:55;;;;;;;6.22;4.43;;;;;;;2.15;100.00;92485.00;2090522;28;20021;-83
2023/10/18 02:09:59;;;;;;;5.65;4.40;;;;;;;2.06;100.00;92479.34;2100132;28;20142;-84
2023/10/18 02:11:05;;;;;;;6.20;4.68;;;;;;;2.09;100.00;92483.88;2112977;28;20026;-83
2023/10/18 02:12:08;;;;;;;8.73;4.18;;;;;;;2.14;100.00;92478.22;2113529;28;20019;-83
2023/10/18 02:13:15;;;;;;;9.60;4.90;;;;;;;2.19;100.00;92493.66;2114051;28;20157;-83
2023/10/18 02:14:17;;;;;;;5.72;3.92;;;;;;;2.27;100.00;92489.88;2105053;28;20024;-83
2023/10/18 02:15:18;;;;;;;6.97;4.75;;;;;;;2.23;100.00;92489.88;2093169;28;20021;-83
2023/10/18 02:16:19;;;;;;;8.93;4.30;;;;;;;2.16;100.00;92479.34;2097211;28;20441;-83
2023/10/18 02:17:21;;;;;;;6.53;4.43;;;;;;;2.18;100.00;92479.72;2113626;28;20026;-83
2023/10/18 02:18:23;;;;;;;8.23;4.53;;;;;;;2.16;100.00;92483.88;2105587;28;20082;-83
2023/10/18 02:19:24;;;;;;;7.07;4.55;;;;;;;2.12;100.00;92480.50;2096778;28;20094;-82
2023/10/18 02:21:10;;;;;;;7.88;4.32;;;;;;;2.10;100.00;92488.00;2096768;28;20115;-84
2023/10/18 02:22:07;;;;;;;7.88;5.20;;;;;;;2.08;100.00;92480.50;2111929;28;20016;-84
2023/10/18 02:23:11;;;;;;;8.60;4.97;;;;;;;2.12;100.00;92486.50;2098313;28;20040;-83
2023/10/18 02:24:12;;;;;;;6.82;4.32;;;;;;;1.97;100.00;92485.00;2096976;28;20028;-82
2023/10/18 02:25:24;;;;;;;7.35;4.55;;;;;;;1.97;100.00;92485.00;2104235;28;20412;-83
2023/10/18 02:26:31;;;;;;;6.97;4.53;;;;;;;2.05;100.00;92485.75;2105291;28;20028;-83
2023/10/18 02:27:36;;;;;;;6.35;4.40;;;;;;;2.11;100.00;92484.25;2094188;28;20409;-83
2023/10/18 02:28:37;;;;;;;5.35;3.83;;;;;;;2.01;100.00;92486.50;2098327;28;20025;-82
2023/10/18 02:29:39;;;;;;;7.55;4.30;;;;;;;1.91;100.00;92495.16;2105222;28;20051;-83
2023/10/18 02:30:40;;;;;;;6.65;3.90;;;;;;;1.95;100.00;92493.28;2097390;28;20405;-83
2023/10/18 02:31:42;;;;;;;8.40;4.43;;;;;;;2.05;100.00;92480.47;2105417;28;20024;-82
2023/10/18 02:32:43;;;;;;;6.65;4.30;;;;;;;2.04;100.00;92478.97;2097061;28;20016;-82
2023/10/18 02:33:44;;;;;;;5.85;4.45;;;;;;;2.10;100.00;92482.75;2096875;28;20028;-83
2023/10/18 02:34:45;;;;;;;6.15;4.20;;;;;;;2.13;100.00;92487.25;2094351;28;20013;-83
2023/10/18 02:35:46;;;;;;;5.68;4.47;;;;;;;2.12;100.00;92483.13;2096742;28;20025;-83
2023/10/18 02:36:47;;;;;;;6.53;4.50;;;;;;;1.99;100.00;92475.59;2088801;28;20546;-83
2023/10/18 02:37:51;;;;;;;6.07;3.90;;;;;;;1.96;100.00;92473.69;2087981;28;20072;-83
2023/10/18 02:38:55;;;;;;;6.97;4.50;;;;;;;2.05;100.00;92475.97;2095599;28;20092;-83
2023/10/18 02:40:07;;;;;;;5.65;4.18;;;;;;;2.05;100.00;92469.94;2100636;28;20027;-83
2023/10/18 02:41:19;;;;;;;3.58;3.20;;;;;;;2.08;100.00;92469.94;2104920;28;20477;-83
2023/10/18 02:42:20;;;;;;;7.25;4.30;;;;;;;2.10;100.00;92469.56;2088566;28;20059;-83
2023/10/18 02:43:21;;;;;;;8.52;5.20;;;;;;;2.12;100.00;92475.22;2088850;28;20021;-83
2023/10/18 02:44:23;;;;;;;6.13;3.95;;;;;;;2.03;100.00;92469.56;2094760;28;20246;-82
2023/10/18 02:45:24;;;;;;;5.82;4.20;;;;;;;2.14;100.00;92465.03;2088476;28;20025;-83
2023/10/18 02:46:25;;;;;;;6.30;3.92;;;;;;;2.26;100.00;92468.03;2088916;28;20025;-83
2023/10/18 02:47:29;;;;;;;6.93;4.07;;;;;;;2.42;100.00;92483.47;2096994;28;20024;-83
2023/10/18 02:48:31;;;;;;;8.38;4.13;;;;;;;2.55;100.00;92475.16;2106209;28;20488;-83
2023/10/18 02:49:34;;;;;;;7.18;4.28;;;;;;;2.77;100.00;92464.16;2121639;28;20023;-83
2023/10/18 02:50:38;;;;;;;5.15;4.03;;;;;;;2.74;100.00;92464.94;2107174;28;20028;-83
2023/10/18 02:51:41;;;;;;;7.00;4.63;;;;;;;2.59;100.00;92465.34;2105765;28;20039;-82
2023/10/18 02:52:42;;;;;;;6.63;4.10;;;;;;;2.49;100.00;92462.34;2104973;28;20018;-82
2023/10/18 02:53:43;;;;;;;6.68;4.10;;;;;;;2.48;100.00;92463.47;2088378;28;20045;-83
2023/10/18 02:54:48;;;;;;;7.78;4.25;;;;;;;2.48;100.00;92470.66;2097119;28;20017;-82
2023/10/18 02:55:55;;;;;;;5.95;4.00;;;;;;;2.37;100.00;92469.91;2093302;28;20102;-82
2023/10/18 02:56:59;;;;;;;6.88;3.90;;;;;;;2.32;100.00;92463.13;2092670;28;20033;-82
2023/10/18 02:58:00;;;;;;;5.70;4.20;;;;;;;2.34;100.00;92468.78;2081404;28;20089;-83
2023/10/18 02:59:06;;;;;;;4.60;3.85;;;;;;;2.40;100.00;92467.25;2091694;28;20028;-83
2023/10/18 03:00:11;;;;;;;5.82;3.67;;;;;;;2.44;100.00;92464.63;2097922;28;20104;-83
2023/10/18 03:01:18;;;;;;;5.22;3.60;;;;;;;2.33;100.00;92461.25;2112285;28;20024;-82
2023/10/18 03:02:24;;;;;;;5.18;3.63;;;;;;;2.21;100.00;92463.16;2097298;28;20630;-83
2023/10/18 03:03:25;;;;;;;5.95;3.45;;;;;;;2.19;100.00;92459.38;2090070;28;20429;-82
2023/10/18 03:04:29;;;;;;;5.80;3.85;;;;;;;2.25;100.00;92463.91;2090333;28;20033;-82
2023/10/18 03:05:32;;;;;;;7.57;3.60;;;;;;;2.24;100.00;92456.38;2100424;28;20070;-82
2023/10/18 03:06:34;;;;;;;6.40;3.72;;;;;;;2.23;100.00;92452.22;2097307;28;20479;-82
2023/10/18 03:07:35;;;;;;;4.78;3.63;;;;;;;2.22;100.00;92458.63;2105099;28;20024;-82
2023/10/18 03:08:36;;;;;;;4.93;3.83;;;;;;;2.16;100.00;92447.72;2105187;28;20059;-83
2023/10/18 03:10:45;;;;;;;4.63;3.50;;;;;;;2.15;100.00;92446.22;2105358;28;20100;-82
2023/10/18 03:11:47;;;;;;;4.20;3.60;;;;;;;2.14;100.00;92442.06;2098117;28;20020;-83
2023/10/18 03:12:49;;;;;;;5.72;3.70;;;;;;;2.19;100.00;92439.03;2104019;28;20035;-83
2023/10/18 03:13:57;;;;;;;5.40;3.42;;;;;;;2.11;100.00;92442.06;2095523;28;20052;-83
2023/10/18 03:14:59;;;;;;;5.95;4.60;;;;;;;2.06;100.00;92445.84;2082440;28;20021;-83
2023/10/18 03:16:15;;;;;;;8.40;4.05;;;;;;;2.00;100.00;92448.09;2093792;28;20457;-83
2023/10/18 03:18:25;;;;;;;6.00;4.13;;;;;;;2.10;100.00;92445.84;2105735;28;20027;-83
2023/10/18 03:19:26;;;;;;;6.57;4.03;;;;;;;2.14;100.00;92447.34;2097267;28;20186;-82
2023/10/18 03:20:27;;;;;;;6.45;3.95;;;;;;;2.06;100.00;92448.47;2088150;28;20097;-83
2023/10/18 03:21:32;;;;;;;5.82;4.07;;;;;;;2.13;100.00;92447.72;2088574;28;20025;-83
2023/10/18 03:22:33;;;;;;;6.22;3.78;;;;;;;2.11;100.00;92439.44;2085409;28;20014;-82
2023/10/18 03:23:50;;;;;;;6.85;3.85;;;;;;;2.13;100.00;92426.63;2095969;28;20037;-81
2023/10/18 03:24:55;;;;;;;5.25;3.50;;;;;;;2.05;100.00;92433.78;2092930;28;20124;-82
2023/10/18 03:25:59;;;;;;;7.45;4.10;;;;;;;2.06;100.00;92439.81;2097327;28;20078;-84
2023/10/18 03:27:07;;;;;;;6.65;4.00;;;;;;;2.06;100.00;92431.91;2106257;28;20028;-82
2023/10/18 03:28:12;;;;;;;7.57;3.63;;;;;;;1.99;100.00;92436.06;2095869;28;20127;-82
2023/10/18 03:29:15;;;;;;;4.38;3.60;;;;;;;2.01;100.00;92446.97;2099192;28;20031;-82
2023/10/18 03:30:23;;;;;;;5.25;3.75;;;;;;;1.97;100.00;92438.31;2106880;28;20055;-82
2023/10/18 03:31:27;;;;;;;5.30;3.58;;;;;;;1.95;100.00;92445.09;2109325;28;20024;-83
2023/10/18 03:32:28;;;;;;;6.10;3.25;;;;;;;2.04;100.00;92437.56;2105870;28;20025;-83
2023/10/18 03:33:32;;;;;;;4.30;3.40;;;;;;;2.11;100.00;92434.16;2090192;28;20044;-82
2023/10/18 03:34:41;;;;;;;3.30;3.00;;;;;;;2.20;100.00;92437.19;2083421;28;20017;-82
2023/10/18 03:35:43;;;;;;;4.18;3.50;;;;;;;2.17;100.00;92430.03;2089602;28;20027;-82
2023/10/18 03:36:54;;;;;;;6.40;3.63;;;;;;;2.12;100.00;92433.03;2098522;28;20308;-82
2023/10/18 03:38:03;;;;;;;5.43;2.92;;;;;;;2.15;100.00;92432.28;2087869;28;20029;-82
2023/10/18 03:39:15;;;;;;;4.15;3.35;;;;;;;2.21;100.00;92425.50;2097311;28;20401;-83
2023/10/18 03:40:27;;;;;;;5.88;3.40;;;;;;;2.20;100.00;92424.75;2099791;28;20470;-84
2023/10/18 03:41:40;;;;;;;3.75;2.97;;;;;;;2.22;100.00;92417.19;2091635;28;20528;-83
2023/10/18 03:42:45;;;;;;;3.75;3.03;;;;;;;2.22;100.00;92419.09;2098919;28;20027;-83
2023/10/18 03:43:48;;;;;;;3.63;3.00;;;;;;;2.12;100.00;92427.78;2106839;28;20436;-83
2023/10/18 03:44:51;;;;;;;4.40;2.83;;;;;;;2.19;100.00;92425.84;2106644;28;20107;-82
2023/10/18 03:47:12;;;;;;;4.65;2.88;;;;;;;2.19;100.00;92420.59;2102570;28;20032;-82
2023/10/18 03:48:23;;;;;;;4.75;3.20;;;;;;;2.23;100.00;92418.69;2098000;28;20028;-83
2023/10/18 03:50:54;;;;;;;3.47;3.00;;;;;;;2.21;100.00;92426.25;2101932;28;20096;-84
2023/10/18 03:51:54;;;;;;;3.65;3.17;;;;;;;2.11;100.00;92424.38;2106354;28;20051;-83
2023/10/18 03:52:57;;;;;;;5.38;3.20;;;;;;;2.04;100.00;92418.38;2097916;28;20442;-83
2023/10/18 03:54:00;;;;;;;4.97;3.10;;;;;;;2.11;100.00;92420.97;2100793;28;20055;-82
2023/10/18 03:56:06;;;;;;;5.03;2.88;;;;;;;2.24;100.00;92417.59;2098410;28;20017;-83
2023/10/18 03:57:08;;;;;;;5.05;3.28;;;;;;;2.16;100.00;92416.09;2094334;28;20039;-83
2023/10/18 03:58:08;;;;;;;5.43;3.50;;;;;;;2.24;100.00;92417.59;2098086;28;20024;-84
2023/10/18 03:59:37;;;;;;;4.15;2.97;;;;;;;2.19;100.00;92417.94;2093469;28;20047;-83
2023/10/18 04:00:37;;;;;;;5.20;3.20;;;;;;;2.29;100.00;92421.72;2095924;28;20035;-83
2023/10/18 04:01:44;;;;;;;4.80;2.90;;;;;;;2.29;100.00;92416.44;2106473;28;20036;-83
2023/10/18 04:03:08;;;;;;;3.42;2.50;;;;;;;2.33;100.00;92408.50;2090594;28;20021;-82
2023/10/18 04:04:17;;;;;;;3.75;2.90;;;;;;;2.41;100.00;92421.28;2091103;28;20136;-83
2023/10/18 04:05:35;;;;;;;4.15;3.33;;;;;;;2.27;100.00;92419.44;2100618;28;20047;-83
2023/10/18 04:06:36;;;;;;;4.53;3.25;;;;;;;2.36;100.00;92421.69;2099861;28;20113;-82
2023/10/18 04:07:38;;;;;;;6.78;3.50;;;;;;;2.39;100.00;92417.56;2091390;28;20112;-83
2023/10/18 04:08:39;;;;;;;5.72;3.33;;;;;;;2.46;100.00;92412.25;2089620;28;20110;-84
2023/10/18 04:11:02;;;;;;;4.47;3.55;;;;;;;2.36;100.00;92410.38;2094784;28;20024;-83
2023/10/18 04:12:04;;;;;;;6.38;3.28;;;;;;;2.41;100.00;92412.63;2089864;28;20025;-82
2023/10/18 04:13:11;;;;;;;4.78;3.25;;;;;;;2.51;100.00;92406.59;2098475;28;20025;-84
2023/10/18 04:14:16;;;;;;;3.33;2.90;;;;;;;2.49;100.00;92412.22;2097400;28;20505;-83
2023/10/18 04:15:29;;;;;;;5.65;3.55;;;;;;;2.42;100.00;92411.53;2105414;28;20020;-84
2023/10/18 04:16:30;;;;;;;6.20;3.85;;;;;;;2.39;100.00;92407.00;2099762;28;20494;-83
2023/10/18 04:18:35;;;;;;;3.92;3.40;;;;;;;2.31;100.00;92408.16;2106280;28;20016;-84
2023/10/18 04:19:36;;;;;;;4.88;3.55;;;;;;;2.35;100.00;92409.63;2106183;28;20054;-83
2023/10/18 04:20:41;;;;;;;3.50;3.20;;;;;;;2.29;100.00;92416.44;2108429;28;20062;-83
2023/10/18 04:21:42;;;;;;;4.50;3.35;;;;;;;2.36;100.00;92413.78;2106422;28;20085;-83
2023/10/18 04:22:44;;;;;;;4.32;4.00;;;;;;;2.31;100.00;92419.44;2089341;28;20025;-84
2023/10/18 04:23:49;;;;;;;4.68;4.28;;;;;;;2.32;100.00;92415.66;2089158;28;20524;-83
2023/10/18 04:24:52;;;;;;;4.75;4.10;;;;;;;2.37;100.00;92411.88;2097613;28;20505;-83
2023/10/18 04:26:10;;;;;;;4.35;3.90;;;;;;;2.38;100.00;92414.16;2094264;28;20031;-83
2023/10/18 04:27:11;;;;;;;4.70;3.40;;;;;;;2.50;100.00;92402.44;2099996;28;20025;-83
2023/10/18 04:28:12;;;;;;;3.50;3.17;;;;;;;2.57;100.00;92405.06;2106410;28;20461;-84
2023/10/18 04:29:22;;;;;;;5.95;3.70;;;;;;;2.57;100.00;92399.03;2097980;28;20024;-84
2023/10/18 04:30:30;;;;;;;4.40;3.95;;;;;;;2.76;100.00;92396.69;2114542;28;20068;-84
2023/10/18 04:31:32;;;;;;;5.30;4.30;;;;;;;2.74;100.00;92392.94;2098899;28;20107;-83
2023/10/18 04:32:33;;;;;;;4.32;3.92;;;;;;;2.78;100.00;92399.69;2089336;28;20025;-84
2023/10/18 04:33:48;;;;;;;4.43;4.03;;;;;;;2.89;100.00;92397.00;2098108;28;20024;-82
2023/10/18 04:34:49;;;;;;;6.72;4.40;;;;;;;2.85;100.00;92396.25;2114084;28;20372;-83
2023/10/18 04:35:56;;;;;;;6.18;5.57;;;;;;;2.65;100.00;92392.59;2097677;28;20044;-82
2023/10/18 04:36:59;;;;;;;5.15;4.13;;;;;;;3.12;100.00;92395.78;2090432;28;20032;-83
2023/10/18 04:38:04;;;;;;;7.72;6.00;;;;;;;3.00;100.00;92395.06;2089644;28;20028;-83
2023/10/18 04:39:06;;;;;;;11.10;7.57;;;;;;;3.31;100.00;92392.63;2104490;28;20016;-84
2023/10/18 04:40:19;;;;;;;11.82;7.63;;;;;;;3.17;100.00;92390.84;2102345;28;20799;-83
2023/10/18 04:42:24;;;;;;;13.15;9.55;;;;;;;2.81;100.00;92377.09;2108963;28;20489;-83
2023/10/18 04:43:27;;;;;;;16.73;8.77;;;;;;;2.84;100.00;92381.56;2096228;28;20493;-83
2023/10/18 04:44:29;;;;;;;10.93;7.32;;;;;;;2.80;100.00;92382.72;2110815;28;20034;-84
2023/10/18 04:45:35;;;;;;;9.15;7.43;;;;;;;2.96;100.00;92383.78;2102207;28;20027;-83
2023/10/18 04:46:36;;;;;;;10.90;8.23;;;;;;;2.74;100.00;92388.41;2104497;28;20080;-83
2023/10/18 04:47:40;;;;;;;15.30;10.30;;;;;;;2.83;100.00;92379.31;2117675;27;20019;-83
2023/10/18 04:50:00;;;;;;;12.63;9.25;;;;;;;2.82;100.00;92370.66;2097896;28;20043;-84
2023/10/18 04:51:06;;;;;;;8.63;7.72;;;;;;;2.90;100.00;92363.47;2104394;28;20024;-81
2023/10/18 04:52:20;;;;;;;8.10;7.28;;;;;;;2.96;100.00;92361.91;2085389;28;20040;-84
2023/10/18 04:53:23;;;;;;;8.52;7.70;;;;;;;3.13;100.00;92360.31;2091222;28;20025;-83
2023/10/18 04:54:47;;;;;;;10.48;7.80;;;;;;;3.04;100.00;92366.03;2093382;28;20386;-83
2023/10/18 04:55:58;;;;;;;6.53;5.82;;;;;;;2.98;100.00;92357.00;2093876;28;20550;-83
2023/10/18 04:57:00;;;;;;;6.05;5.03;;;;;;;3.06;100.00;92355.06;2098689;28;20028;-83
2023/10/18 04:58:02;;;;;;;6.10;5.35;;;;;;;3.04;100.00;92352.81;2104727;28;20027;-82
2023/10/18 04:59:19;;;;;;;5.43;4.93;;;;;;;3.10;100.00;92350.50;2104791;28;20027;-84
2023/10/18 05:00:35;;;;;;;5.40;4.72;;;;;;;3.11;100.00;92357.28;2096951;28;20036;-83
2023/10/18 05:01:42;;;;;;;4.53;4.13;;;;;;;3.15;100.00;92355.38;2092118;28;20115;-84
2023/10/18 05:02:45;;;;;;;5.25;4.20;;;;;;;3.24;100.00;92353.06;2102485;28;20095;-83
2023/10/18 05:03:50;;;;;;;4.78;4.05;;;;;;;3.23;100.00;92356.84;2091884;28;20651;-84
2023/10/18 05:04:52;;;;;;;6.05;4.35;;;;;;;3.30;100.00;92356.81;2091833;28;20180;-83
2023/10/18 05:05:53;;;;;;;6.03;4.65;;;;;;;3.31;100.00;92344.34;2102265;28;20032;-84
2023/10/18 05:07:00;;;;;;;5.35;4.85;;;;;;;3.41;100.00;92354.06;2098756;28;20019;-83
2023/10/18 05:08:01;;;;;;;5.20;4.43;;;;;;;3.48;100.00;92351.41;2103952;28;20062;-82
2023/10/18 05:09:12;;;;;;;5.35;4.63;;;;;;;3.35;100.00;92348.47;2099116;28;20058;-83
2023/10/18 05:10:18;;;;;;;5.10;4.25;;;;;;;3.40;100.00;92342.00;2106545;28;20024;-84
2023/10/18 05:11:26;;;;;;;6.13;4.72;;;;;;;3.36;100.00;92344.69;2105402;28;20027;-82
2023/10/18 05:12:28;;;;;;;6.65;4.38;;;;;;;3.42;100.00;92340.47;2101596;28;20027;-83
2023/10/18 05:13:36;;;;;;;6.65;5.53;;;;;;;3.56;100.00;92344.91;2092662;28;20790;-82
2023/10/18 05:14:42;;;;;;;6.35;5.75;;;;;;;3.57;100.00;92343.03;2098421;28;20017;-82
2023/10/18 05:15:43;;;;;;;6.55;5.50;;;;;;;3.38;100.00;92349.56;2104903;28;20078;-83